BAW873 EPKK-EGLL
Flight info
| Callsign | BAW873 |
|---|---|
| Flight time | 2h 6m |
| Altitude | 34000 |
| Route | N0448F340 OMFOL DCT DINOV DCT NAROX DCT KUMER DCT ODVIL DCT ABNED L980 LOGAN LOGA2H |
| Aircraft | A320/M-SDE3FGHIJ1RWXY/S |
Departure
| Time | 2026-05-06 14:55 |
|---|---|
| Airport | Kraków John Paul II International Airport (EPKK) |
Arrival
| Time | 2026-05-06 17:01 |
|---|---|
| Airport | London Heathrow Airport (EGLL) |
| Time | Latitude | Longitude | Altitude | Speed | Heading |
|---|---|---|---|---|---|
| 2026-05-06 14:15 | 50.07475 | 19.80078 | 800 ft | 0 kts | 168° |
| 2026-05-06 14:51 | 50.07467 | 19.80081 | 800 ft | 3 kts | 168° |
| 2026-05-06 14:51 | 50.07431 | 19.80094 | 800 ft | 7 kts | 164° |
| 2026-05-06 14:51 | 50.07420 | 19.80168 | 800 ft | 10 kts | 77° |
| 2026-05-06 14:51 | 50.07436 | 19.80280 | 800 ft | 11 kts | 81° |
| 2026-05-06 14:52 | 50.07475 | 19.80381 | 800 ft | 12 kts | 26° |
| 2026-05-06 14:52 | 50.07558 | 19.80419 | 800 ft | 13 kts | 15° |
| 2026-05-06 14:52 | 50.07651 | 19.80400 | 800 ft | 14 kts | 346° |
| 2026-05-06 14:52 | 50.07747 | 19.80366 | 800 ft | 11 kts | 349° |
| 2026-05-06 14:53 | 50.07828 | 19.80346 | 800 ft | 12 kts | 349° |
| 2026-05-06 14:53 | 50.07917 | 19.80312 | 800 ft | 14 kts | 343° |
| 2026-05-06 14:53 | 50.08002 | 19.80279 | 799 ft | 13 kts | 336° |
| 2026-05-06 14:53 | 50.08016 | 19.80209 | 800 ft | 0 kts | 256° |
| 2026-05-06 14:54 | 50.08002 | 19.80124 | 801 ft | 35 kts | 256° |
| 2026-05-06 14:54 | 50.07945 | 19.79720 | 801 ft | 79 kts | 258° |
| 2026-05-06 14:54 | 50.07790 | 19.78604 | 801 ft | 129 kts | 258° |
| 2026-05-06 14:54 | 50.07576 | 19.77065 | 1006 ft | 152 kts | 258° |
| 2026-05-06 14:55 | 50.07337 | 19.75390 | 1435 ft | 169 kts | 259° |
| 2026-05-06 14:55 | 50.07098 | 19.73504 | 1803 ft | 186 kts | 257° |
| 2026-05-06 14:55 | 50.06815 | 19.71413 | 2096 ft | 209 kts | 255° |
| 2026-05-06 14:55 | 50.06479 | 19.69076 | 2423 ft | 233 kts | 256° |
| 2026-05-06 14:56 | 50.06110 | 19.66525 | 2944 ft | 248 kts | 255° |
| 2026-05-06 14:56 | 50.05733 | 19.63882 | 3751 ft | 252 kts | 255° |
| 2026-05-06 14:56 | 50.05353 | 19.61204 | 4572 ft | 256 kts | 256° |
| 2026-05-06 14:56 | 50.04969 | 19.58491 | 5404 ft | 258 kts | 256° |
| 2026-05-06 14:57 | 50.04578 | 19.55737 | 6248 ft | 261 kts | 255° |
| 2026-05-06 14:57 | 50.04183 | 19.52963 | 6989 ft | 264 kts | 255° |
| 2026-05-06 14:57 | 50.03781 | 19.50154 | 7714 ft | 268 kts | 255° |
| 2026-05-06 14:57 | 50.03379 | 19.47344 | 8467 ft | 271 kts | 255° |
| 2026-05-06 14:58 | 50.02973 | 19.44463 | 9191 ft | 275 kts | 257° |
| 2026-05-06 14:58 | 50.02890 | 19.41425 | 9908 ft | 282 kts | 274° |
| 2026-05-06 14:58 | 50.03377 | 19.38403 | 10197 ft | 306 kts | 289° |
| 2026-05-06 14:58 | 50.04250 | 19.35245 | 10326 ft | 329 kts | 290° |
| 2026-05-06 14:59 | 50.05198 | 19.31855 | 10617 ft | 343 kts | 290° |
| 2026-05-06 14:59 | 50.06149 | 19.28471 | 11187 ft | 347 kts | 290° |
| 2026-05-06 14:59 | 50.07125 | 19.25006 | 11820 ft | 349 kts | 290° |
| 2026-05-06 14:59 | 50.08097 | 19.21531 | 12467 ft | 351 kts | 290° |
| 2026-05-06 15:00 | 50.09070 | 19.18027 | 13093 ft | 354 kts | 290° |
| 2026-05-06 15:00 | 50.10046 | 19.14500 | 13704 ft | 356 kts | 290° |
| 2026-05-06 15:00 | 50.11028 | 19.10943 | 14267 ft | 358 kts | 290° |
| 2026-05-06 15:00 | 50.12012 | 19.07361 | 14813 ft | 360 kts | 289° |
| 2026-05-06 15:01 | 50.13001 | 19.03766 | 15334 ft | 362 kts | 289° |
| 2026-05-06 15:01 | 50.13999 | 19.00138 | 15819 ft | 366 kts | 289° |
| 2026-05-06 15:01 | 50.15003 | 18.96479 | 16296 ft | 369 kts | 289° |
| 2026-05-06 15:01 | 50.16013 | 18.92780 | 16779 ft | 372 kts | 289° |
| 2026-05-06 15:02 | 50.17015 | 18.89090 | 17258 ft | 376 kts | 289° |
| 2026-05-06 15:02 | 50.18041 | 18.85317 | 17748 ft | 380 kts | 289° |
| 2026-05-06 15:02 | 50.19082 | 18.81497 | 18208 ft | 383 kts | 288° |
| 2026-05-06 15:02 | 50.20127 | 18.77660 | 18654 ft | 386 kts | 288° |
| 2026-05-06 15:03 | 50.21182 | 18.73778 | 19126 ft | 388 kts | 288° |
| 2026-05-06 15:03 | 50.22236 | 18.69890 | 19603 ft | 390 kts | 288° |
| 2026-05-06 15:03 | 50.23293 | 18.65978 | 20106 ft | 392 kts | 288° |
| 2026-05-06 15:03 | 50.24343 | 18.62046 | 20588 ft | 392 kts | 288° |
| 2026-05-06 15:04 | 50.25383 | 18.58090 | 21061 ft | 394 kts | 288° |
| 2026-05-06 15:04 | 50.26420 | 18.54123 | 21512 ft | 395 kts | 288° |
| 2026-05-06 15:04 | 50.27454 | 18.50142 | 21967 ft | 397 kts | 288° |
| 2026-05-06 15:04 | 50.28493 | 18.46137 | 22411 ft | 398 kts | 288° |
| 2026-05-06 15:05 | 50.29538 | 18.42119 | 22833 ft | 400 kts | 288° |
| 2026-05-06 15:05 | 50.30594 | 18.38080 | 23269 ft | 401 kts | 288° |
| 2026-05-06 15:05 | 50.31654 | 18.34035 | 23623 ft | 403 kts | 288° |
| 2026-05-06 15:05 | 50.32719 | 18.29976 | 23957 ft | 405 kts | 288° |
| 2026-05-06 15:06 | 50.33792 | 18.25880 | 24300 ft | 407 kts | 288° |
| 2026-05-06 15:06 | 50.34846 | 18.21834 | 24619 ft | 408 kts | 287° |
| 2026-05-06 15:06 | 50.35918 | 18.17704 | 24936 ft | 410 kts | 287° |
| 2026-05-06 15:06 | 50.36989 | 18.13561 | 25256 ft | 412 kts | 287° |
| 2026-05-06 15:07 | 50.38067 | 18.09384 | 25564 ft | 414 kts | 287° |
| 2026-05-06 15:07 | 50.39147 | 18.05192 | 25882 ft | 415 kts | 287° |
| 2026-05-06 15:07 | 50.40229 | 18.00988 | 26192 ft | 417 kts | 287° |
| 2026-05-06 15:07 | 50.41317 | 17.96760 | 26546 ft | 418 kts | 286° |
| 2026-05-06 15:08 | 50.42406 | 17.92515 | 26887 ft | 420 kts | 286° |
| 2026-05-06 15:08 | 50.43495 | 17.88257 | 27219 ft | 421 kts | 286° |
| 2026-05-06 15:08 | 50.44586 | 17.83996 | 27662 ft | 420 kts | 286° |
| 2026-05-06 15:08 | 50.45682 | 17.79759 | 28151 ft | 418 kts | 287° |
| 2026-05-06 15:09 | 50.46834 | 17.75562 | 28607 ft | 418 kts | 288° |
| 2026-05-06 15:09 | 50.48015 | 17.71451 | 29057 ft | 417 kts | 288° |
| 2026-05-06 15:09 | 50.49226 | 17.67310 | 29498 ft | 417 kts | 288° |
| 2026-05-06 15:09 | 50.50433 | 17.63179 | 29928 ft | 416 kts | 288° |
| 2026-05-06 15:10 | 50.51629 | 17.59050 | 30318 ft | 414 kts | 288° |
| 2026-05-06 15:10 | 50.52807 | 17.54935 | 30733 ft | 412 kts | 288° |
| 2026-05-06 15:10 | 50.53970 | 17.50838 | 31156 ft | 409 kts | 288° |
| 2026-05-06 15:10 | 50.55120 | 17.46752 | 31595 ft | 407 kts | 288° |
| 2026-05-06 15:11 | 50.56259 | 17.42683 | 32081 ft | 405 kts | 287° |
| 2026-05-06 15:11 | 50.57387 | 17.38648 | 32538 ft | 402 kts | 287° |
| 2026-05-06 15:11 | 50.58510 | 17.34627 | 32984 ft | 399 kts | 287° |
| 2026-05-06 15:11 | 50.59626 | 17.30633 | 33409 ft | 397 kts | 288° |
| 2026-05-06 15:12 | 50.60737 | 17.26658 | 33728 ft | 396 kts | 287° |
| 2026-05-06 15:12 | 50.62956 | 17.18657 | 33779 ft | 408 kts | 287° |
| 2026-05-06 15:13 | 50.65242 | 17.10393 | 33778 ft | 413 kts | 288° |
| 2026-05-06 15:13 | 50.67544 | 17.02092 | 33805 ft | 413 kts | 287° |
| 2026-05-06 15:14 | 50.69840 | 16.93787 | 33780 ft | 413 kts | 287° |
| 2026-05-06 15:14 | 50.72126 | 16.85454 | 33784 ft | 413 kts | 287° |
| 2026-05-06 15:15 | 50.74404 | 16.77127 | 33783 ft | 413 kts | 287° |
| 2026-05-06 15:15 | 50.76680 | 16.68787 | 33785 ft | 413 kts | 287° |
| 2026-05-06 15:16 | 50.78951 | 16.60437 | 33808 ft | 413 kts | 287° |
| 2026-05-06 15:16 | 50.81206 | 16.52112 | 33792 ft | 414 kts | 287° |
| 2026-05-06 15:17 | 50.83472 | 16.43711 | 33782 ft | 415 kts | 287° |
| 2026-05-06 15:17 | 50.85733 | 16.35290 | 33785 ft | 416 kts | 287° |
| 2026-05-06 15:18 | 50.87997 | 16.26856 | 33791 ft | 416 kts | 287° |
| 2026-05-06 15:18 | 50.90246 | 16.18416 | 33820 ft | 416 kts | 287° |
| 2026-05-06 15:19 | 50.92480 | 16.09993 | 33800 ft | 417 kts | 287° |
| 2026-05-06 15:19 | 50.94718 | 16.01502 | 33817 ft | 418 kts | 286° |
| 2026-05-06 15:20 | 50.96940 | 15.92968 | 33806 ft | 418 kts | 286° |
| 2026-05-06 15:20 | 50.99158 | 15.84414 | 33805 ft | 419 kts | 286° |
| 2026-05-06 15:21 | 51.01360 | 15.75854 | 33836 ft | 419 kts | 286° |
| 2026-05-06 15:21 | 51.03550 | 15.67332 | 33818 ft | 420 kts | 286° |
| 2026-05-06 15:22 | 51.05755 | 15.58740 | 33803 ft | 420 kts | 286° |
| 2026-05-06 15:22 | 51.07949 | 15.50128 | 33797 ft | 420 kts | 286° |
| 2026-05-06 15:23 | 51.10139 | 15.41505 | 33797 ft | 420 kts | 286° |
| 2026-05-06 15:23 | 51.12327 | 15.32867 | 33816 ft | 421 kts | 286° |
| 2026-05-06 15:24 | 51.14513 | 15.24211 | 33799 ft | 422 kts | 286° |
| 2026-05-06 15:24 | 51.16694 | 15.15525 | 33795 ft | 422 kts | 286° |
| 2026-05-06 15:25 | 51.18856 | 15.06871 | 33798 ft | 422 kts | 285° |
| 2026-05-06 15:25 | 51.20606 | 14.98017 | 33793 ft | 413 kts | 274° |
| 2026-05-06 15:26 | 51.21458 | 14.88960 | 33828 ft | 413 kts | 274° |
| 2026-05-06 15:26 | 51.22312 | 14.79885 | 33816 ft | 414 kts | 274° |
| 2026-05-06 15:27 | 51.23165 | 14.70800 | 33811 ft | 414 kts | 273° |
| 2026-05-06 15:27 | 51.24006 | 14.61703 | 33803 ft | 414 kts | 273° |
| 2026-05-06 15:28 | 51.24837 | 14.52600 | 33803 ft | 414 kts | 273° |
| 2026-05-06 15:28 | 51.25672 | 14.43497 | 33801 ft | 414 kts | 273° |
| 2026-05-06 15:29 | 51.26495 | 14.34433 | 33815 ft | 415 kts | 273° |
| 2026-05-06 15:29 | 51.27311 | 14.25327 | 33817 ft | 414 kts | 273° |
| 2026-05-06 15:30 | 51.28115 | 14.16221 | 33812 ft | 414 kts | 273° |
| 2026-05-06 15:30 | 51.28913 | 14.07103 | 33803 ft | 414 kts | 273° |
| 2026-05-06 15:31 | 51.29706 | 13.97988 | 33800 ft | 414 kts | 273° |
| 2026-05-06 15:31 | 51.30495 | 13.88873 | 33804 ft | 414 kts | 273° |
| 2026-05-06 15:32 | 51.31646 | 13.75253 | 33796 ft | 413 kts | 272° |
| 2026-05-06 15:32 | 51.32416 | 13.66141 | 33785 ft | 413 kts | 272° |
| 2026-05-06 15:33 | 51.33179 | 13.57037 | 33783 ft | 413 kts | 272° |
| 2026-05-06 15:33 | 51.33935 | 13.47919 | 33816 ft | 413 kts | 272° |
| 2026-05-06 15:34 | 51.34674 | 13.38800 | 33794 ft | 413 kts | 272° |
| 2026-05-06 15:34 | 51.35413 | 13.29667 | 33787 ft | 414 kts | 272° |
| 2026-05-06 15:35 | 51.36146 | 13.20534 | 33786 ft | 414 kts | 272° |
| 2026-05-06 15:35 | 51.36869 | 13.11392 | 33786 ft | 414 kts | 272° |
| 2026-05-06 15:36 | 51.37589 | 13.02248 | 33783 ft | 414 kts | 272° |
| 2026-05-06 15:36 | 51.38298 | 12.93141 | 33805 ft | 415 kts | 272° |
| 2026-05-06 15:37 | 51.39002 | 12.83971 | 33802 ft | 415 kts | 272° |
| 2026-05-06 15:37 | 51.39697 | 12.74785 | 33797 ft | 415 kts | 272° |
| 2026-05-06 15:38 | 51.40391 | 12.65598 | 33794 ft | 415 kts | 272° |
| 2026-05-06 15:38 | 51.41078 | 12.56415 | 33794 ft | 415 kts | 272° |
| 2026-05-06 15:39 | 51.41753 | 12.47288 | 33798 ft | 416 kts | 272° |
| 2026-05-06 15:39 | 51.42425 | 12.38063 | 33784 ft | 417 kts | 272° |
| 2026-05-06 15:40 | 51.43091 | 12.28836 | 33779 ft | 417 kts | 272° |
| 2026-05-06 15:40 | 51.43755 | 12.19583 | 33779 ft | 418 kts | 272° |
| 2026-05-06 15:41 | 51.44404 | 12.10311 | 33778 ft | 418 kts | 271° |
| 2026-05-06 15:41 | 51.45044 | 12.01028 | 33787 ft | 419 kts | 271° |
| 2026-05-06 15:42 | 51.45681 | 11.91773 | 33765 ft | 421 kts | 271° |
| 2026-05-06 15:42 | 51.46319 | 11.82445 | 33768 ft | 422 kts | 271° |
| 2026-05-06 15:43 | 51.46847 | 11.74658 | 33769 ft | 423 kts | 271° |
| 2026-05-06 15:43 | 51.47472 | 11.65277 | 33776 ft | 423 kts | 271° |
| 2026-05-06 15:44 | 51.48089 | 11.55884 | 33785 ft | 423 kts | 271° |
| 2026-05-06 15:44 | 51.48704 | 11.46472 | 33779 ft | 424 kts | 271° |
| 2026-05-06 15:45 | 51.49312 | 11.37051 | 33764 ft | 425 kts | 271° |
| 2026-05-06 15:45 | 51.49907 | 11.27585 | 33765 ft | 426 kts | 271° |
| 2026-05-06 15:46 | 51.50492 | 11.18118 | 33762 ft | 427 kts | 271° |
| 2026-05-06 15:46 | 51.51076 | 11.08623 | 33796 ft | 427 kts | 271° |
| 2026-05-06 15:47 | 51.51652 | 10.99205 | 33788 ft | 427 kts | 271° |
| 2026-05-06 15:47 | 51.52228 | 10.89709 | 33788 ft | 427 kts | 271° |
| 2026-05-06 15:48 | 51.52797 | 10.80158 | 33786 ft | 427 kts | 271° |
| 2026-05-06 15:48 | 51.53345 | 10.70708 | 33785 ft | 427 kts | 271° |
| 2026-05-06 15:49 | 51.53895 | 10.61214 | 33800 ft | 427 kts | 272° |
| 2026-05-06 15:49 | 51.54565 | 10.51701 | 33793 ft | 428 kts | 274° |
| 2026-05-06 15:50 | 51.55290 | 10.42196 | 33799 ft | 429 kts | 274° |
| 2026-05-06 15:50 | 51.55996 | 10.32692 | 33797 ft | 429 kts | 273° |
| 2026-05-06 15:51 | 51.56667 | 10.23168 | 33802 ft | 429 kts | 273° |
| 2026-05-06 15:51 | 51.57327 | 10.13699 | 33817 ft | 429 kts | 273° |
| 2026-05-06 15:52 | 51.57986 | 10.04164 | 33809 ft | 430 kts | 273° |
| 2026-05-06 15:52 | 51.58638 | 9.94595 | 33806 ft | 431 kts | 273° |
| 2026-05-06 15:53 | 51.59284 | 9.85016 | 33812 ft | 431 kts | 273° |
| 2026-05-06 15:53 | 51.59922 | 9.75426 | 33810 ft | 431 kts | 273° |
| 2026-05-06 15:54 | 51.60551 | 9.65834 | 33836 ft | 431 kts | 273° |
| 2026-05-06 15:54 | 51.61171 | 9.56246 | 33829 ft | 431 kts | 273° |
| 2026-05-06 15:55 | 51.61782 | 9.46626 | 33826 ft | 431 kts | 273° |
| 2026-05-06 15:55 | 51.62394 | 9.37021 | 33818 ft | 432 kts | 273° |
| 2026-05-06 15:56 | 51.62997 | 9.27416 | 33823 ft | 432 kts | 273° |
| 2026-05-06 15:56 | 51.63591 | 9.17793 | 33821 ft | 431 kts | 272° |
| 2026-05-06 15:57 | 51.64166 | 9.08237 | 33832 ft | 431 kts | 272° |
| 2026-05-06 15:57 | 51.64741 | 8.98614 | 33838 ft | 431 kts | 272° |
| 2026-05-06 15:58 | 51.65312 | 8.89006 | 33845 ft | 431 kts | 272° |
| 2026-05-06 15:58 | 51.65876 | 8.79383 | 33849 ft | 431 kts | 272° |
| 2026-05-06 15:59 | 51.66430 | 8.69770 | 33856 ft | 431 kts | 272° |
| 2026-05-06 15:59 | 51.66973 | 8.60141 | 33849 ft | 432 kts | 272° |
| 2026-05-06 16:00 | 51.67508 | 8.50494 | 33844 ft | 432 kts | 272° |
| 2026-05-06 16:00 | 51.68032 | 8.40855 | 33837 ft | 432 kts | 272° |
| 2026-05-06 16:01 | 51.68556 | 8.31194 | 33843 ft | 433 kts | 272° |
| 2026-05-06 16:01 | 51.69071 | 8.21541 | 33856 ft | 433 kts | 272° |
| 2026-05-06 16:02 | 51.69579 | 8.11862 | 33847 ft | 434 kts | 272° |
| 2026-05-06 16:02 | 51.70082 | 8.02232 | 33846 ft | 434 kts | 272° |
| 2026-05-06 16:03 | 51.70574 | 7.92539 | 33850 ft | 434 kts | 272° |
| 2026-05-06 16:03 | 51.71056 | 7.82816 | 33853 ft | 434 kts | 272° |
| 2026-05-06 16:04 | 51.71529 | 7.73096 | 33863 ft | 435 kts | 272° |
| 2026-05-06 16:04 | 51.72000 | 7.63357 | 33858 ft | 435 kts | 272° |
| 2026-05-06 16:05 | 51.72459 | 7.53623 | 33858 ft | 436 kts | 272° |
| 2026-05-06 16:05 | 51.72911 | 7.43932 | 33856 ft | 436 kts | 272° |
| 2026-05-06 16:06 | 51.73359 | 7.34111 | 33864 ft | 436 kts | 272° |
| 2026-05-06 16:06 | 51.73802 | 7.24411 | 33874 ft | 437 kts | 272° |
| 2026-05-06 16:07 | 51.74237 | 7.14630 | 33870 ft | 437 kts | 272° |
| 2026-05-06 16:07 | 51.74657 | 7.04833 | 33867 ft | 438 kts | 272° |
| 2026-05-06 16:08 | 51.75063 | 6.95034 | 33868 ft | 438 kts | 272° |
| 2026-05-06 16:08 | 51.75470 | 6.85217 | 33876 ft | 438 kts | 272° |
| 2026-05-06 16:09 | 51.75872 | 6.75410 | 33884 ft | 438 kts | 272° |
| 2026-05-06 16:09 | 51.76267 | 6.65589 | 33873 ft | 439 kts | 271° |
| 2026-05-06 16:10 | 51.76650 | 6.55761 | 33893 ft | 439 kts | 271° |
| 2026-05-06 16:10 | 51.77026 | 6.45917 | 33895 ft | 439 kts | 271° |
| 2026-05-06 16:11 | 51.77391 | 6.36081 | 33889 ft | 439 kts | 271° |
| 2026-05-06 16:11 | 51.77753 | 6.26239 | 33897 ft | 439 kts | 271° |
| 2026-05-06 16:12 | 51.78102 | 6.16396 | 33910 ft | 439 kts | 271° |
| 2026-05-06 16:12 | 51.78446 | 6.06544 | 33902 ft | 439 kts | 271° |
| 2026-05-06 16:13 | 51.78778 | 5.96698 | 33902 ft | 439 kts | 271° |
| 2026-05-06 16:13 | 51.79103 | 5.86862 | 33901 ft | 439 kts | 271° |
| 2026-05-06 16:14 | 51.79422 | 5.77027 | 33903 ft | 438 kts | 271° |
| 2026-05-06 16:14 | 51.79733 | 5.67189 | 33905 ft | 438 kts | 271° |
| 2026-05-06 16:15 | 51.80035 | 5.57336 | 33904 ft | 438 kts | 271° |
| 2026-05-06 16:15 | 51.80326 | 5.47495 | 33904 ft | 439 kts | 271° |
| 2026-05-06 16:16 | 51.80609 | 5.37650 | 33908 ft | 438 kts | 271° |
| 2026-05-06 16:16 | 51.80885 | 5.27817 | 33918 ft | 438 kts | 271° |
| 2026-05-06 16:17 | 51.81157 | 5.17990 | 33929 ft | 438 kts | 271° |
| 2026-05-06 16:17 | 51.81418 | 5.08172 | 33918 ft | 437 kts | 271° |
| 2026-05-06 16:18 | 51.81675 | 4.98346 | 33914 ft | 437 kts | 271° |
| 2026-05-06 16:18 | 51.81914 | 4.88527 | 33913 ft | 437 kts | 270° |
| 2026-05-06 16:19 | 51.82146 | 4.78708 | 33920 ft | 437 kts | 271° |
| 2026-05-06 16:19 | 51.82368 | 4.68936 | 33907 ft | 437 kts | 270° |
| 2026-05-06 16:20 | 51.82582 | 4.59113 | 33919 ft | 437 kts | 270° |
| 2026-05-06 16:20 | 51.82794 | 4.49296 | 33929 ft | 437 kts | 270° |
| 2026-05-06 16:21 | 51.83001 | 4.39459 | 33933 ft | 437 kts | 270° |
| 2026-05-06 16:21 | 51.83196 | 4.29635 | 33924 ft | 437 kts | 270° |
| 2026-05-06 16:22 | 51.83379 | 4.19810 | 33922 ft | 437 kts | 270° |
| 2026-05-06 16:22 | 51.83554 | 4.09981 | 33918 ft | 437 kts | 270° |
| 2026-05-06 16:23 | 51.83725 | 4.00130 | 33925 ft | 437 kts | 270° |
| 2026-05-06 16:23 | 51.83888 | 3.90300 | 33915 ft | 437 kts | 270° |
| 2026-05-06 16:24 | 51.84048 | 3.80534 | 33935 ft | 436 kts | 270° |
| 2026-05-06 16:24 | 51.84204 | 3.70752 | 33936 ft | 434 kts | 270° |
| 2026-05-06 16:25 | 51.84348 | 3.61028 | 33931 ft | 433 kts | 270° |
| 2026-05-06 16:25 | 51.84493 | 3.51275 | 33931 ft | 433 kts | 269° |
| 2026-05-06 16:26 | 51.84629 | 3.41730 | 33940 ft | 432 kts | 270° |
| 2026-05-06 16:26 | 51.84756 | 3.32009 | 33956 ft | 432 kts | 270° |
| 2026-05-06 16:27 | 51.84862 | 3.22315 | 33959 ft | 431 kts | 270° |
| 2026-05-06 16:27 | 51.84735 | 3.14277 | 33952 ft | 429 kts | 263° |
| 2026-05-06 16:28 | 51.84108 | 3.04676 | 33976 ft | 429 kts | 263° |
| 2026-05-06 16:28 | 51.83491 | 2.95084 | 33951 ft | 429 kts | 263° |
| 2026-05-06 16:29 | 51.82858 | 2.85495 | 33955 ft | 429 kts | 263° |
| 2026-05-06 16:29 | 51.82216 | 2.75900 | 33946 ft | 430 kts | 263° |
| 2026-05-06 16:30 | 51.81671 | 2.67923 | 33959 ft | 429 kts | 263° |
| 2026-05-06 16:30 | 51.80899 | 2.56697 | 33901 ft | 430 kts | 263° |
| 2026-05-06 16:31 | 51.80565 | 2.51899 | 33624 ft | 429 kts | 263° |
| 2026-05-06 16:31 | 51.80231 | 2.47120 | 33343 ft | 428 kts | 263° |
| 2026-05-06 16:31 | 51.79895 | 2.42326 | 33071 ft | 430 kts | 263° |
| 2026-05-06 16:31 | 51.79554 | 2.37511 | 32799 ft | 431 kts | 263° |
| 2026-05-06 16:32 | 51.79210 | 2.32705 | 32528 ft | 432 kts | 263° |
| 2026-05-06 16:32 | 51.78862 | 2.27888 | 32266 ft | 432 kts | 263° |
| 2026-05-06 16:32 | 51.78515 | 2.23070 | 31994 ft | 433 kts | 263° |
| 2026-05-06 16:32 | 51.78182 | 2.18227 | 31552 ft | 433 kts | 263° |
| 2026-05-06 16:33 | 51.77889 | 2.13419 | 31016 ft | 429 kts | 264° |
| 2026-05-06 16:33 | 51.77625 | 2.08701 | 30477 ft | 426 kts | 264° |
| 2026-05-06 16:33 | 51.77363 | 2.03962 | 29918 ft | 423 kts | 264° |
| 2026-05-06 16:34 | 51.76833 | 1.94552 | 28799 ft | 413 kts | 263° |
| 2026-05-06 16:34 | 51.76566 | 1.90016 | 28281 ft | 409 kts | 263° |
| 2026-05-06 16:34 | 51.76289 | 1.85474 | 27741 ft | 405 kts | 263° |
| 2026-05-06 16:34 | 51.76009 | 1.80976 | 27228 ft | 401 kts | 263° |
| 2026-05-06 16:35 | 51.75730 | 1.76524 | 26715 ft | 397 kts | 263° |
| 2026-05-06 16:35 | 51.75451 | 1.72117 | 26203 ft | 393 kts | 263° |
| 2026-05-06 16:35 | 51.75173 | 1.67740 | 25700 ft | 390 kts | 263° |
| 2026-05-06 16:35 | 51.74900 | 1.63403 | 25211 ft | 387 kts | 263° |
| 2026-05-06 16:36 | 51.74630 | 1.59097 | 24700 ft | 385 kts | 263° |
| 2026-05-06 16:36 | 51.74357 | 1.54791 | 24106 ft | 386 kts | 263° |
| 2026-05-06 16:36 | 51.74080 | 1.50474 | 23522 ft | 386 kts | 264° |
| 2026-05-06 16:36 | 51.73804 | 1.46165 | 22880 ft | 385 kts | 264° |
| 2026-05-06 16:37 | 51.73529 | 1.41875 | 22309 ft | 383 kts | 264° |
| 2026-05-06 16:37 | 51.73253 | 1.37606 | 21735 ft | 382 kts | 264° |
| 2026-05-06 16:37 | 51.72974 | 1.33353 | 21162 ft | 381 kts | 264° |
| 2026-05-06 16:37 | 51.72693 | 1.29111 | 20591 ft | 380 kts | 264° |
| 2026-05-06 16:38 | 51.72412 | 1.24869 | 20027 ft | 379 kts | 264° |
| 2026-05-06 16:38 | 51.72132 | 1.20654 | 19460 ft | 378 kts | 264° |
| 2026-05-06 16:38 | 51.71851 | 1.16440 | 18894 ft | 377 kts | 264° |
| 2026-05-06 16:38 | 51.71568 | 1.12250 | 18331 ft | 376 kts | 264° |
| 2026-05-06 16:39 | 51.71284 | 1.08061 | 17715 ft | 374 kts | 264° |
| 2026-05-06 16:39 | 51.71001 | 1.03910 | 17156 ft | 371 kts | 264° |
| 2026-05-06 16:39 | 51.70718 | 0.99801 | 16602 ft | 368 kts | 264° |
| 2026-05-06 16:39 | 51.70438 | 0.95722 | 16052 ft | 364 kts | 264° |
| 2026-05-06 16:40 | 51.70161 | 0.91687 | 15544 ft | 360 kts | 264° |
| 2026-05-06 16:40 | 51.69884 | 0.87679 | 14966 ft | 358 kts | 264° |
| 2026-05-06 16:40 | 51.69607 | 0.83702 | 14414 ft | 356 kts | 264° |
| 2026-05-06 16:40 | 51.69327 | 0.79731 | 13798 ft | 356 kts | 264° |
| 2026-05-06 16:41 | 51.69047 | 0.75784 | 13300 ft | 351 kts | 264° |
| 2026-05-06 16:41 | 51.68770 | 0.71885 | 12734 ft | 348 kts | 265° |
| 2026-05-06 16:41 | 51.68496 | 0.68026 | 12122 ft | 347 kts | 264° |
| 2026-05-06 16:41 | 51.68227 | 0.64236 | 11601 ft | 337 kts | 265° |
| 2026-05-06 16:42 | 51.67967 | 0.60634 | 11463 ft | 312 kts | 264° |
| 2026-05-06 16:42 | 51.67723 | 0.57287 | 11332 ft | 290 kts | 265° |
| 2026-05-06 16:42 | 51.67493 | 0.54175 | 11201 ft | 271 kts | 264° |
| 2026-05-06 16:42 | 51.67279 | 0.51259 | 11035 ft | 255 kts | 265° |
| 2026-05-06 16:43 | 51.67076 | 0.48474 | 10787 ft | 245 kts | 266° |
| 2026-05-06 16:43 | 51.66878 | 0.45724 | 10386 ft | 249 kts | 265° |
| 2026-05-06 16:43 | 51.66676 | 0.42959 | 9981 ft | 248 kts | 266° |
| 2026-05-06 16:43 | 51.66475 | 0.40201 | 9561 ft | 250 kts | 265° |
| 2026-05-06 16:44 | 51.66270 | 0.37405 | 9152 ft | 253 kts | 265° |
| 2026-05-06 16:44 | 51.66064 | 0.34589 | 8906 ft | 250 kts | 266° |
| 2026-05-06 16:44 | 51.65860 | 0.31798 | 8513 ft | 254 kts | 264° |
| 2026-05-06 16:44 | 51.65653 | 0.29019 | 8365 ft | 247 kts | 264° |
| 2026-05-06 16:45 | 51.65447 | 0.26307 | 8002 ft | 242 kts | 265° |
| 2026-05-06 16:45 | 51.65244 | 0.23616 | 7526 ft | 242 kts | 264° |
| 2026-05-06 16:45 | 51.65043 | 0.20957 | 7251 ft | 237 kts | 264° |
| 2026-05-06 16:45 | 51.64839 | 0.18279 | 7143 ft | 242 kts | 265° |
| 2026-05-06 16:46 | 51.64637 | 0.15587 | 7031 ft | 242 kts | 264° |
| 2026-05-06 16:46 | 51.64455 | 0.12892 | 7000 ft | 242 kts | 265° |
| 2026-05-06 16:46 | 51.64307 | 0.10224 | 7008 ft | 242 kts | 266° |
| 2026-05-06 16:46 | 51.64165 | 0.07520 | 7006 ft | 243 kts | 266° |
| 2026-05-06 16:47 | 51.64023 | 0.04813 | 7003 ft | 243 kts | 265° |
| 2026-05-06 16:47 | 51.63879 | 0.02105 | 7003 ft | 243 kts | 266° |
| 2026-05-06 16:47 | 51.63732 | -0.00603 | 7043 ft | 243 kts | 266° |
| 2026-05-06 16:47 | 51.63584 | -0.03299 | 7044 ft | 240 kts | 267° |
| 2026-05-06 16:48 | 51.63436 | -0.05949 | 7050 ft | 240 kts | 266° |
| 2026-05-06 16:48 | 51.63285 | -0.08628 | 7052 ft | 240 kts | 267° |
| 2026-05-06 16:48 | 51.63134 | -0.11298 | 7053 ft | 239 kts | 265° |
| 2026-05-06 16:48 | 51.62979 | -0.13967 | 7058 ft | 240 kts | 267° |
| 2026-05-06 16:49 | 51.62826 | -0.16643 | 7059 ft | 240 kts | 266° |
| 2026-05-06 16:49 | 51.62673 | -0.19322 | 7060 ft | 240 kts | 267° |
| 2026-05-06 16:49 | 51.62520 | -0.21987 | 7062 ft | 240 kts | 267° |
| 2026-05-06 16:49 | 51.62367 | -0.24657 | 7062 ft | 239 kts | 266° |
| 2026-05-06 16:50 | 51.62215 | -0.27327 | 7065 ft | 239 kts | 267° |
| 2026-05-06 16:50 | 51.62063 | -0.29993 | 7065 ft | 239 kts | 267° |
| 2026-05-06 16:50 | 51.61908 | -0.32655 | 7005 ft | 240 kts | 267° |
| 2026-05-06 16:50 | 51.61751 | -0.35294 | 7010 ft | 240 kts | 267° |
| 2026-05-06 16:51 | 51.61592 | -0.37966 | 7008 ft | 240 kts | 266° |
| 2026-05-06 16:51 | 51.61431 | -0.40640 | 7005 ft | 240 kts | 266° |
| 2026-05-06 16:51 | 51.61269 | -0.43323 | 7010 ft | 240 kts | 267° |
| 2026-05-06 16:51 | 51.61111 | -0.45995 | 7011 ft | 240 kts | 267° |
| 2026-05-06 16:52 | 51.60953 | -0.48667 | 7008 ft | 240 kts | 265° |
| 2026-05-06 16:52 | 51.60792 | -0.51344 | 7006 ft | 240 kts | 267° |
| 2026-05-06 16:52 | 51.60631 | -0.54008 | 7010 ft | 240 kts | 266° |
| 2026-05-06 16:52 | 51.60469 | -0.56676 | 7011 ft | 240 kts | 267° |
| 2026-05-06 16:53 | 51.60307 | -0.59339 | 7004 ft | 240 kts | 266° |
| 2026-05-06 16:53 | 51.60145 | -0.62006 | 7011 ft | 240 kts | 268° |
| 2026-05-06 16:53 | 51.59982 | -0.64682 | 7005 ft | 240 kts | 266° |
| 2026-05-06 16:53 | 51.59818 | -0.67311 | 6935 ft | 232 kts | 265° |
| 2026-05-06 16:54 | 51.59661 | -0.69869 | 6693 ft | 229 kts | 265° |
| 2026-05-06 16:54 | 51.59504 | -0.72404 | 6436 ft | 227 kts | 266° |
| 2026-05-06 16:54 | 51.59346 | -0.74940 | 6092 ft | 229 kts | 266° |
| 2026-05-06 16:54 | 51.58901 | -0.77380 | 5737 ft | 233 kts | 239° |
| 2026-05-06 16:55 | 51.57709 | -0.79134 | 5381 ft | 237 kts | 205° |
| 2026-05-06 16:55 | 51.56095 | -0.79614 | 5032 ft | 239 kts | 175° |
| 2026-05-06 16:55 | 51.54437 | -0.79374 | 4679 ft | 239 kts | 177° |
| 2026-05-06 16:55 | 51.52802 | -0.79272 | 4337 ft | 232 kts | 179° |
| 2026-05-06 16:56 | 51.51210 | -0.79075 | 3861 ft | 229 kts | 164° |
| 2026-05-06 16:56 | 51.49774 | -0.78096 | 3665 ft | 221 kts | 144° |
| 2026-05-06 16:56 | 51.48656 | -0.76489 | 3503 ft | 212 kts | 124° |
| 2026-05-06 16:56 | 51.47933 | -0.74485 | 3305 ft | 205 kts | 107° |
| 2026-05-06 16:57 | 51.47637 | -0.72322 | 3079 ft | 192 kts | 89° |
| 2026-05-06 16:57 | 51.47638 | -0.70245 | 2826 ft | 181 kts | 85° |
| 2026-05-06 16:57 | 51.47649 | -0.68293 | 2575 ft | 172 kts | 86° |
| 2026-05-06 16:57 | 51.47660 | -0.66419 | 2360 ft | 164 kts | 86° |
| 2026-05-06 16:58 | 51.47671 | -0.64580 | 2141 ft | 163 kts | 87° |
| 2026-05-06 16:58 | 51.47681 | -0.62796 | 1914 ft | 161 kts | 85° |
| 2026-05-06 16:58 | 51.47690 | -0.61002 | 1690 ft | 160 kts | 86° |
| 2026-05-06 16:58 | 51.47698 | -0.59282 | 1474 ft | 151 kts | 86° |
| 2026-05-06 16:59 | 51.47706 | -0.57617 | 1268 ft | 149 kts | 85° |
| 2026-05-06 16:59 | 51.47710 | -0.55989 | 1052 ft | 144 kts | 85° |
| 2026-05-06 16:59 | 51.47714 | -0.54361 | 829 ft | 146 kts | 84° |
| 2026-05-06 16:59 | 51.47733 | -0.52750 | 676 ft | 143 kts | 85° |
| 2026-05-06 17:00 | 51.47745 | -0.51173 | 451 ft | 141 kts | 88° |
| 2026-05-06 17:00 | 51.47737 | -0.49581 | 251 ft | 143 kts | 84° |
| 2026-05-06 17:00 | 51.47749 | -0.48019 | 100 ft | 133 kts | 84° |
| 2026-05-06 17:00 | 51.47761 | -0.46732 | 89 ft | 93 kts | 91° |
| 2026-05-06 17:01 | 51.47760 | -0.45970 | 85 ft | 43 kts | 90° |
| 2026-05-06 17:01 | 51.47761 | -0.45669 | 84 ft | 23 kts | 88° |
| 2026-05-06 17:01 | 51.47718 | -0.45477 | 87 ft | 18 kts | 146° |
| 2026-05-06 17:01 | 51.47635 | -0.45468 | 86 ft | 12 kts | 187° |
| 2026-05-06 17:02 | 51.47598 | -0.45573 | 86 ft | 13 kts | 269° |
| 2026-05-06 17:02 | 51.47596 | -0.45727 | 91 ft | 15 kts | 269° |
| 2026-05-06 17:02 | 51.47595 | -0.45904 | 87 ft | 17 kts | 270° |
| 2026-05-06 17:02 | 51.47595 | -0.46110 | 90 ft | 20 kts | 270° |
| 2026-05-06 17:03 | 51.47594 | -0.46342 | 88 ft | 22 kts | 269° |
| 2026-05-06 17:03 | 51.47592 | -0.46588 | 86 ft | 19 kts | 270° |
| 2026-05-06 17:03 | 51.47591 | -0.46794 | 86 ft | 14 kts | 269° |
| 2026-05-06 17:03 | 51.47582 | -0.46958 | 88 ft | 16 kts | 271° |
| 2026-05-06 17:04 | 51.47582 | -0.47151 | 90 ft | 19 kts | 270° |
| 2026-05-06 17:04 | 51.47581 | -0.47372 | 90 ft | 21 kts | 270° |
| 2026-05-06 17:04 | 51.47580 | -0.47619 | 90 ft | 23 kts | 270° |
| 2026-05-06 17:04 | 51.47580 | -0.47849 | 90 ft | 21 kts | 270° |
| 2026-05-06 17:05 | 51.47579 | -0.48090 | 88 ft | 21 kts | 269° |
| 2026-05-06 17:05 | 51.47577 | -0.48332 | 87 ft | 23 kts | 269° |
| 2026-05-06 17:05 | 51.47544 | -0.48474 | 87 ft | 12 kts | 193° |
| 2026-05-06 17:05 | 51.47452 | -0.48475 | 86 ft | 14 kts | 180° |
| 2026-05-06 17:06 | 51.47345 | -0.48474 | 86 ft | 16 kts | 180° |
| 2026-05-06 17:06 | 51.47223 | -0.48473 | 86 ft | 19 kts | 180° |
| 2026-05-06 17:06 | 51.47088 | -0.48471 | 89 ft | 21 kts | 179° |
| 2026-05-06 17:06 | 51.46940 | -0.48470 | 88 ft | 15 kts | 180° |
| 2026-05-06 17:07 | 51.46877 | -0.48510 | 86 ft | 9 kts | 247° |
| 2026-05-06 17:07 | 51.46877 | -0.48624 | 86 ft | 11 kts | 269° |
| 2026-05-06 17:07 | 51.46876 | -0.48761 | 79 ft | 12 kts | 270° |
| 2026-05-06 17:07 | 51.46884 | -0.48856 | 86 ft | 4 kts | 307° |
| 2026-05-06 17:08 | 51.46917 | -0.48859 | 86 ft | 5 kts | 359° |
| 2026-05-06 17:08 | 51.46928 | -0.48859 | 86 ft | 1 kts | 360° |
| 2026-05-06 17:08 | 51.46930 | -0.48859 | 86 ft | 0 kts | 360° |